sensor_id;sensor_type;location;lat;lon;timestamp;P1;durP1;ratioP1;P2;durP2;ratioP2
20931;SDS011;10625;49.054;9.348;2022-09-09T06:02:07;3.10;;;1.97;;
20931;SDS011;10625;49.054;9.348;2022-09-09T06:04:35;5.83;;;1.33;;
20931;SDS011;10625;49.054;9.348;2022-09-09T06:07:02;3.60;;;1.50;;
20931;SDS011;10625;49.054;9.348;2022-09-09T06:09:30;2.40;;;1.60;;
20931;SDS011;10625;49.054;9.348;2022-09-09T06:11:57;3.13;;;1.40;;
20931;SDS011;10625;49.054;9.348;2022-09-09T06:14:25;2.87;;;1.40;;
20931;SDS011;10625;49.054;9.348;2022-09-09T06:16:53;2.33;;;1.40;;
20931;SDS011;10625;49.054;9.348;2022-09-09T06:19:20;5.70;;;1.40;;
20931;SDS011;10625;49.054;9.348;2022-09-09T06:21:47;2.57;;;1.70;;
20931;SDS011;10625;49.054;9.348;2022-09-09T06:24:16;6.07;;;1.40;;
20931;SDS011;10625;49.054;9.348;2022-09-09T06:26:45;3.70;;;1.47;;
20931;SDS011;10625;49.054;9.348;2022-09-09T06:29:12;2.03;;;1.70;;
20931;SDS011;10625;49.054;9.348;2022-09-09T06:31:39;2.03;;;1.43;;
20931;SDS011;10625;49.054;9.348;2022-09-09T06:34:07;4.40;;;2.50;;
20931;SDS011;10625;49.054;9.348;2022-09-09T06:36:36;2.00;;;1.07;;
20931;SDS011;10625;49.054;9.348;2022-09-09T06:39:03;3.67;;;1.70;;
20931;SDS011;10625;49.054;9.348;2022-09-09T06:41:31;3.30;;;1.10;;
20931;SDS011;10625;49.054;9.348;2022-09-09T06:43:59;3.07;;;1.57;;
20931;SDS011;10625;49.054;9.348;2022-09-09T06:46:28;5.33;;;1.23;;
20931;SDS011;10625;49.054;9.348;2022-09-09T06:48:56;3.97;;;1.20;;
20931;SDS011;10625;49.054;9.348;2022-09-09T06:51:30;2.50;;;1.20;;
20931;SDS011;10625;49.054;9.348;2022-09-09T06:53:54;4.10;;;1.20;;
20931;SDS011;10625;49.054;9.348;2022-09-09T06:56:32;2.67;;;1.23;;
20931;SDS011;10625;49.054;9.348;2022-09-09T06:59:01;1.43;;;1.10;;
20931;SDS011;10625;49.054;9.348;2022-09-09T07:01:30;3.27;;;1.17;;
20931;SDS011;10625;49.054;9.348;2022-09-09T07:03:58;2.73;;;1.00;;
20931;SDS011;10625;49.054;9.348;2022-09-09T07:06:26;2.90;;;1.27;;
20931;SDS011;10625;49.054;9.348;2022-09-09T07:08:55;3.07;;;1.17;;
20931;SDS011;10625;49.054;9.348;2022-09-09T07:11:24;1.97;;;1.10;;
20931;SDS011;10625;49.054;9.348;2022-09-09T07:13:53;1.60;;;0.93;;
20931;SDS011;10625;49.054;9.348;2022-09-09T07:16:21;3.67;;;1.40;;
20931;SDS011;10625;49.054;9.348;2022-09-09T07:18:52;2.93;;;1.00;;
20931;SDS011;10625;49.054;9.348;2022-09-09T07:21:21;2.83;;;1.70;;
20931;SDS011;10625;49.054;9.348;2022-09-09T07:23:48;3.20;;;1.07;;
20931;SDS011;10625;49.054;9.348;2022-09-09T07:26:16;2.77;;;1.23;;
20931;SDS011;10625;49.054;9.348;2022-09-09T07:28:45;2.47;;;0.93;;
20931;SDS011;10625;49.054;9.348;2022-09-09T07:31:14;2.63;;;1.00;;
20931;SDS011;10625;49.054;9.348;2022-09-09T07:33:43;3.07;;;1.00;;
20931;SDS011;10625;49.054;9.348;2022-09-09T07:36:17;2.10;;;1.10;;
20931;SDS011;10625;49.054;9.348;2022-09-09T07:38:48;2.67;;;1.20;;
20931;SDS011;10625;49.054;9.348;2022-09-09T07:41:24;3.90;;;1.10;;
20931;SDS011;10625;49.054;9.348;2022-09-09T07:43:54;3.40;;;0.97;;
20931;SDS011;10625;49.054;9.348;2022-09-09T07:46:22;2.90;;;1.00;;
20931;SDS011;10625;49.054;9.348;2022-09-09T07:48:51;2.13;;;1.20;;
20931;SDS011;10625;49.054;9.348;2022-09-09T07:51:24;5.63;;;1.10;;
20931;SDS011;10625;49.054;9.348;2022-09-09T07:53:51;5.03;;;1.10;;
20931;SDS011;10625;49.054;9.348;2022-09-09T07:56:17;2.93;;;1.07;;
20931;SDS011;10625;49.054;9.348;2022-09-09T07:58:45;6.20;;;3.40;;
20931;SDS011;10625;49.054;9.348;2022-09-09T08:01:14;2.47;;;0.93;;
20931;SDS011;10625;49.054;9.348;2022-09-09T08:03:43;3.43;;;1.20;;
20931;SDS011;10625;49.054;9.348;2022-09-09T08:06:11;2.43;;;1.03;;
20931;SDS011;10625;49.054;9.348;2022-09-09T08:08:40;5.00;;;1.47;;
20931;SDS011;10625;49.054;9.348;2022-09-09T08:11:12;1.97;;;0.90;;
20931;SDS011;10625;49.054;9.348;2022-09-09T08:13:42;4.13;;;0.93;;
20931;SDS011;10625;49.054;9.348;2022-09-09T08:16:11;3.67;;;0.90;;
20931;SDS011;10625;49.054;9.348;2022-09-09T08:18:38;3.37;;;1.00;;
20931;SDS011;10625;49.054;9.348;2022-09-09T08:21:12;3.27;;;1.10;;
20931;SDS011;10625;49.054;9.348;2022-09-09T08:23:41;5.30;;;1.30;;
20931;SDS011;10625;49.054;9.348;2022-09-09T08:26:12;3.83;;;1.03;;
20931;SDS011;10625;49.054;9.348;2022-09-09T08:28:41;4.47;;;1.33;;
20931;SDS011;10625;49.054;9.348;2022-09-09T08:31:10;4.37;;;1.10;;
20931;SDS011;10625;49.054;9.348;2022-09-09T08:33:37;3.23;;;1.20;;
20931;SDS011;10625;49.054;9.348;2022-09-09T08:36:05;1.87;;;0.90;;
20931;SDS011;10625;49.054;9.348;2022-09-09T08:38:33;4.23;;;1.00;;
20931;SDS011;10625;49.054;9.348;2022-09-09T08:43:46;4.40;;;0.93;;
20931;SDS011;10625;49.054;9.348;2022-09-09T08:46:16;4.70;;;1.40;;
20931;SDS011;10625;49.054;9.348;2022-09-09T08:51:18;2.63;;;0.80;;
20931;SDS011;10625;49.054;9.348;2022-09-09T08:53:51;4.47;;;1.03;;
20931;SDS011;10625;49.054;9.348;2022-09-09T08:56:18;2.53;;;0.90;;
20931;SDS011;10625;49.054;9.348;2022-09-09T08:58:48;6.27;;;3.20;;
20931;SDS011;10625;49.054;9.348;2022-09-09T09:03:50;3.43;;;0.93;;
20931;SDS011;10625;49.054;9.348;2022-09-09T09:09:05;3.10;;;1.07;;
20931;SDS011;10625;49.054;9.348;2022-09-09T09:11:37;3.00;;;0.90;;
20931;SDS011;10625;49.054;9.348;2022-09-09T09:14:38;2.50;;;0.90;;
20931;SDS011;10625;49.054;9.348;2022-09-09T09:16:53;3.17;;;0.73;;
20931;SDS011;10625;49.054;9.348;2022-09-09T09:19:21;1.97;;;1.00;;
20931;SDS011;10625;49.054;9.348;2022-09-09T09:24:20;2.87;;;0.80;;
20931;SDS011;10625;49.054;9.348;2022-09-09T09:26:47;2.80;;;1.00;;
20931;SDS011;10625;49.054;9.348;2022-09-09T09:29:16;4.70;;;1.10;;
20931;SDS011;10625;49.054;9.348;2022-09-09T09:31:53;3.57;;;0.87;;
20931;SDS011;10625;49.054;9.348;2022-09-09T09:34:22;3.00;;;1.03;;
20931;SDS011;10625;49.054;9.348;2022-09-09T09:36:55;2.23;;;0.90;;
20931;SDS011;10625;49.054;9.348;2022-09-09T09:39:24;5.70;;;0.80;;
20931;SDS011;10625;49.054;9.348;2022-09-09T09:41:51;4.40;;;1.33;;
20931;SDS011;10625;49.054;9.348;2022-09-09T09:44:23;2.90;;;1.07;;
20931;SDS011;10625;49.054;9.348;2022-09-09T09:46:48;2.63;;;1.20;;
20931;SDS011;10625;49.054;9.348;2022-09-09T09:49:15;8.47;;;1.50;;
20931;SDS011;10625;49.054;9.348;2022-09-09T09:51:43;2.73;;;0.70;;
20931;SDS011;10625;49.054;9.348;2022-09-09T09:56:45;3.00;;;0.87;;
20931;SDS011;10625;49.054;9.348;2022-09-09T09:59:20;2.57;;;1.00;;
20931;SDS011;10625;49.054;9.348;2022-09-09T10:01:48;4.13;;;1.00;;
20931;SDS011;10625;49.054;9.348;2022-09-09T10:04:16;3.07;;;0.80;;
20931;SDS011;10625;49.054;9.348;2022-09-09T10:06:45;2.60;;;0.83;;
20931;SDS011;10625;49.054;9.348;2022-09-09T10:09:25;1.67;;;0.67;;
20931;SDS011;10625;49.054;9.348;2022-09-09T10:11:55;1.47;;;0.60;;
20931;SDS011;10625;49.054;9.348;2022-09-09T10:14:28;2.53;;;0.90;;
20931;SDS011;10625;49.054;9.348;2022-09-09T10:19:30;2.53;;;0.90;;
20931;SDS011;10625;49.054;9.348;2022-09-09T10:27:09;3.23;;;1.13;;
20931;SDS011;10625;49.054;9.348;2022-09-09T10:29:38;7.33;;;3.90;;
20931;SDS011;10625;49.054;9.348;2022-09-09T10:34:53;3.83;;;1.00;;
20931;SDS011;10625;49.054;9.348;2022-09-09T10:37:31;2.67;;;1.13;;
20931;SDS011;10625;49.054;9.348;2022-09-09T10:40:02;2.40;;;0.70;;
20931;SDS011;10625;49.054;9.348;2022-09-09T10:42:29;3.00;;;1.00;;
20931;SDS011;10625;49.054;9.348;2022-09-09T10:47:47;2.60;;;0.83;;
20931;SDS011;10625;49.054;9.348;2022-09-09T10:50:26;2.90;;;0.77;;
20931;SDS011;10625;49.054;9.348;2022-09-09T10:55:23;7.67;;;1.30;;
20931;SDS011;10625;49.054;9.348;2022-09-09T10:57:52;3.63;;;1.07;;
20931;SDS011;10625;49.054;9.348;2022-09-09T11:00:21;2.10;;;0.97;;
20931;SDS011;10625;49.054;9.348;2022-09-09T11:02:56;3.33;;;0.83;;
20931;SDS011;10625;49.054;9.348;2022-09-09T11:05:22;3.20;;;0.70;;
20931;SDS011;10625;49.054;9.348;2022-09-09T11:07:54;0.80;;;0.70;;
20931;SDS011;10625;49.054;9.348;2022-09-09T11:12:56;4.03;;;0.93;;
20931;SDS011;10625;49.054;9.348;2022-09-09T11:15:26;2.60;;;0.87;;
20931;SDS011;10625;49.054;9.348;2022-09-09T11:17:53;3.10;;;1.43;;
20931;SDS011;10625;49.054;9.348;2022-09-09T11:20:22;2.97;;;0.90;;
20931;SDS011;10625;49.054;9.348;2022-09-09T11:25:26;2.53;;;0.77;;
20931;SDS011;10625;49.054;9.348;2022-09-09T11:33:34;5.10;;;1.10;;
20931;SDS011;10625;49.054;9.348;2022-09-09T11:38:46;3.43;;;0.80;;
20931;SDS011;10625;49.054;9.348;2022-09-09T11:41:14;3.17;;;1.10;;
20931;SDS011;10625;49.054;9.348;2022-09-09T11:43:43;3.40;;;1.23;;
20931;SDS011;10625;49.054;9.348;2022-09-09T11:46:11;4.30;;;0.93;;
20931;SDS011;10625;49.054;9.348;2022-09-09T11:48:41;2.73;;;0.80;;
20931;SDS011;10625;49.054;9.348;2022-09-09T11:51:24;5.00;;;0.77;;
20931;SDS011;10625;49.054;9.348;2022-09-09T11:53:55;2.00;;;0.70;;
20931;SDS011;10625;49.054;9.348;2022-09-09T11:56:24;2.10;;;0.70;;
20931;SDS011;10625;49.054;9.348;2022-09-09T11:58:57;1.57;;;0.80;;
20931;SDS011;10625;49.054;9.348;2022-09-09T12:01:28;1.97;;;0.70;;
20931;SDS011;10625;49.054;9.348;2022-09-09T12:04:17;4.30;;;0.90;;
20931;SDS011;10625;49.054;9.348;2022-09-09T12:06:30;2.33;;;1.00;;
20931;SDS011;10625;49.054;9.348;2022-09-09T12:09:06;1.40;;;0.80;;
20931;SDS011;10625;49.054;9.348;2022-09-09T12:11:28;1.43;;;0.50;;
20931;SDS011;10625;49.054;9.348;2022-09-09T12:13:59;0.70;;;0.47;;
20931;SDS011;10625;49.054;9.348;2022-09-09T12:16:34;1.37;;;0.40;;
20931;SDS011;10625;49.054;9.348;2022-09-09T12:24:27;0.93;;;0.60;;
20931;SDS011;10625;49.054;9.348;2022-09-09T12:26:55;0.70;;;0.50;;
20931;SDS011;10625;49.054;9.348;2022-09-09T12:29:24;1.63;;;0.60;;
20931;SDS011;10625;49.054;9.348;2022-09-09T12:32:00;1.23;;;0.50;;
20931;SDS011;10625;49.054;9.348;2022-09-09T12:34:35;0.60;;;0.43;;
20931;SDS011;10625;49.054;9.348;2022-09-09T12:37:50;1.57;;;0.53;;
20931;SDS011;10625;49.054;9.348;2022-09-09T12:39:43;1.83;;;0.50;;
20931;SDS011;10625;49.054;9.348;2022-09-09T12:42:22;0.83;;;0.47;;
20931;SDS011;10625;49.054;9.348;2022-09-09T12:44:53;1.13;;;0.30;;
20931;SDS011;10625;49.054;9.348;2022-09-09T12:47:21;1.07;;;0.50;;
20931;SDS011;10625;49.054;9.348;2022-09-09T12:49:49;1.07;;;0.30;;
20931;SDS011;10625;49.054;9.348;2022-09-09T12:52:23;0.97;;;0.47;;
20931;SDS011;10625;49.054;9.348;2022-09-09T12:54:46;2.27;;;0.40;;
20931;SDS011;10625;49.054;9.348;2022-09-09T12:57:14;0.73;;;0.40;;
20931;SDS011;10625;49.054;9.348;2022-09-09T12:59:43;1.57;;;0.30;;
20931;SDS011;10625;49.054;9.348;2022-09-09T13:02:20;1.40;;;0.43;;
20931;SDS011;10625;49.054;9.348;2022-09-09T13:04:47;1.17;;;0.40;;
20931;SDS011;10625;49.054;9.348;2022-09-09T13:07:17;1.43;;;0.60;;
20931;SDS011;10625;49.054;9.348;2022-09-09T13:09:45;1.60;;;0.30;;
20931;SDS011;10625;49.054;9.348;2022-09-09T13:12:13;1.07;;;0.40;;
20931;SDS011;10625;49.054;9.348;2022-09-09T13:14:42;1.70;;;0.30;;
20931;SDS011;10625;49.054;9.348;2022-09-09T13:17:20;0.57;;;0.20;;
20931;SDS011;10625;49.054;9.348;2022-09-09T13:19:48;0.53;;;0.30;;
20931;SDS011;10625;49.054;9.348;2022-09-09T13:22:20;1.13;;;0.50;;
20931;SDS011;10625;49.054;9.348;2022-09-09T13:24:46;0.70;;;0.43;;
20931;SDS011;10625;49.054;9.348;2022-09-09T13:29:53;1.13;;;0.37;;
20931;SDS011;10625;49.054;9.348;2022-09-09T13:32:22;1.37;;;0.60;;
20931;SDS011;10625;49.054;9.348;2022-09-09T13:34:51;0.83;;;0.40;;
20931;SDS011;10625;49.054;9.348;2022-09-09T13:37:31;0.93;;;0.40;;
20931;SDS011;10625;49.054;9.348;2022-09-09T13:39:51;1.43;;;0.60;;
20931;SDS011;10625;49.054;9.348;2022-09-09T13:42:26;1.57;;;0.40;;
20931;SDS011;10625;49.054;9.348;2022-09-09T13:44:54;0.97;;;0.40;;
20931;SDS011;10625;49.054;9.348;2022-09-09T13:47:27;2.13;;;0.50;;
20931;SDS011;10625;49.054;9.348;2022-09-09T13:49:51;1.33;;;0.40;;
20931;SDS011;10625;49.054;9.348;2022-09-09T13:52:18;1.53;;;0.40;;
20931;SDS011;10625;49.054;9.348;2022-09-09T13:54:49;2.73;;;0.40;;
20931;SDS011;10625;49.054;9.348;2022-09-09T13:57:18;2.70;;;0.47;;
20931;SDS011;10625;49.054;9.348;2022-09-09T13:59:46;2.30;;;0.60;;
20931;SDS011;10625;49.054;9.348;2022-09-09T14:02:14;1.80;;;0.60;;
20931;SDS011;10625;49.054;9.348;2022-09-09T14:04:43;1.10;;;0.50;;
20931;SDS011;10625;49.054;9.348;2022-09-09T14:07:18;2.17;;;0.73;;
20931;SDS011;10625;49.054;9.348;2022-09-09T14:09:42;2.47;;;0.50;;
20931;SDS011;10625;49.054;9.348;2022-09-09T14:12:10;2.00;;;0.60;;
20931;SDS011;10625;49.054;9.348;2022-09-09T14:14:38;1.23;;;0.50;;
20931;SDS011;10625;49.054;9.348;2022-09-09T14:17:06;2.40;;;0.70;;
20931;SDS011;10625;49.054;9.348;2022-09-09T14:19:33;1.70;;;0.60;;
20931;SDS011;10625;49.054;9.348;2022-09-09T14:22:00;1.00;;;0.40;;
20931;SDS011;10625;49.054;9.348;2022-09-09T14:24:28;2.43;;;0.60;;
20931;SDS011;10625;49.054;9.348;2022-09-09T14:26:55;1.67;;;0.57;;
20931;SDS011;10625;49.054;9.348;2022-09-09T14:29:22;1.17;;;0.60;;
20931;SDS011;10625;49.054;9.348;2022-09-09T14:31:51;2.60;;;0.63;;
20931;SDS011;10625;49.054;9.348;2022-09-09T14:34:19;2.43;;;0.60;;
20931;SDS011;10625;49.054;9.348;2022-09-09T14:36:46;1.73;;;0.93;;
20931;SDS011;10625;49.054;9.348;2022-09-09T14:39:13;1.47;;;0.50;;
20931;SDS011;10625;49.054;9.348;2022-09-09T14:41:40;2.33;;;0.60;;
20931;SDS011;10625;49.054;9.348;2022-09-09T14:44:08;1.30;;;0.60;;
20931;SDS011;10625;49.054;9.348;2022-09-09T14:46:36;1.13;;;0.63;;
20931;SDS011;10625;49.054;9.348;2022-09-09T14:49:03;1.07;;;0.60;;
20931;SDS011;10625;49.054;9.348;2022-09-09T14:51:30;2.33;;;0.70;;
20931;SDS011;10625;49.054;9.348;2022-09-09T14:53:58;1.97;;;0.77;;
20931;SDS011;10625;49.054;9.348;2022-09-09T14:56:27;1.43;;;0.50;;
20931;SDS011;10625;49.054;9.348;2022-09-09T14:58:56;1.40;;;0.83;;
20931;SDS011;10625;49.054;9.348;2022-09-09T15:01:24;2.20;;;0.93;;
20931;SDS011;10625;49.054;9.348;2022-09-09T15:03:59;1.33;;;0.63;;
20931;SDS011;10625;49.054;9.348;2022-09-09T15:06:27;3.77;;;0.70;;
20931;SDS011;10625;49.054;9.348;2022-09-09T15:08:55;2.00;;;0.80;;
20931;SDS011;10625;49.054;9.348;2022-09-09T15:11:28;4.00;;;0.70;;
20931;SDS011;10625;49.054;9.348;2022-09-09T15:13:57;2.53;;;0.57;;
20931;SDS011;10625;49.054;9.348;2022-09-09T15:16:26;3.57;;;0.60;;
20931;SDS011;10625;49.054;9.348;2022-09-09T15:18:54;1.10;;;0.57;;
20931;SDS011;10625;49.054;9.348;2022-09-09T15:21:23;1.57;;;0.60;;
20931;SDS011;10625;49.054;9.348;2022-09-09T15:23:50;3.47;;;0.67;;
20931;SDS011;10625;49.054;9.348;2022-09-09T15:26:18;1.30;;;0.50;;
20931;SDS011;10625;49.054;9.348;2022-09-09T15:28:47;0.90;;;0.60;;
20931;SDS011;10625;49.054;9.348;2022-09-09T15:31:20;1.33;;;0.53;;
20931;SDS011;10625;49.054;9.348;2022-09-09T15:33:48;1.50;;;0.50;;
20931;SDS011;10625;49.054;9.348;2022-09-09T15:36:25;2.80;;;0.50;;
20931;SDS011;10625;49.054;9.348;2022-09-09T15:38:44;2.07;;;0.53;;
20931;SDS011;10625;49.054;9.348;2022-09-09T15:41:12;2.10;;;0.50;;
20931;SDS011;10625;49.054;9.348;2022-09-09T15:43:44;0.80;;;0.40;;
20931;SDS011;10625;49.054;9.348;2022-09-09T15:48:46;1.50;;;0.50;;
20931;SDS011;10625;49.054;9.348;2022-09-09T15:51:14;2.33;;;1.00;;
20931;SDS011;10625;49.054;9.348;2022-09-09T15:53:42;1.63;;;0.50;;
20931;SDS011;10625;49.054;9.348;2022-09-09T15:56:09;3.27;;;0.70;;
20931;SDS011;10625;49.054;9.348;2022-09-09T15:58:36;0.63;;;0.60;;
20931;SDS011;10625;49.054;9.348;2022-09-09T16:01:04;1.93;;;0.70;;
20931;SDS011;10625;49.054;9.348;2022-09-09T16:03:37;1.43;;;0.40;;
20931;SDS011;10625;49.054;9.348;2022-09-09T16:06:04;3.40;;;0.50;;
20931;SDS011;10625;49.054;9.348;2022-09-09T16:08:32;1.57;;;0.50;;
20931;SDS011;10625;49.054;9.348;2022-09-09T16:11:07;2.50;;;0.47;;
20931;SDS011;10625;49.054;9.348;2022-09-09T16:13:36;1.27;;;0.43;;
20931;SDS011;10625;49.054;9.348;2022-09-09T16:16:04;2.07;;;0.60;;
20931;SDS011;10625;49.054;9.348;2022-09-09T16:18:35;2.33;;;0.60;;
20931;SDS011;10625;49.054;9.348;2022-09-09T16:21:03;1.90;;;0.40;;
20931;SDS011;10625;49.054;9.348;2022-09-09T16:23:31;1.37;;;0.50;;
20931;SDS011;10625;49.054;9.348;2022-09-09T16:26:00;2.90;;;0.50;;
20931;SDS011;10625;49.054;9.348;2022-09-09T16:28:27;1.40;;;0.47;;
20931;SDS011;10625;49.054;9.348;2022-09-09T16:30:55;2.03;;;0.57;;
20931;SDS011;10625;49.054;9.348;2022-09-09T16:33:24;3.50;;;0.83;;
20931;SDS011;10625;49.054;9.348;2022-09-09T16:35:52;2.37;;;0.53;;
20931;SDS011;10625;49.054;9.348;2022-09-09T16:38:19;2.13;;;0.50;;
20931;SDS011;10625;49.054;9.348;2022-09-09T16:40:47;3.10;;;0.80;;
20931;SDS011;10625;49.054;9.348;2022-09-09T16:43:16;2.53;;;0.90;;
20931;SDS011;10625;49.054;9.348;2022-09-09T16:45:43;4.53;;;0.80;;
20931;SDS011;10625;49.054;9.348;2022-09-09T16:48:11;4.20;;;1.17;;
20931;SDS011;10625;49.054;9.348;2022-09-09T16:50:39;4.53;;;0.80;;
20931;SDS011;10625;49.054;9.348;2022-09-09T16:53:06;1.90;;;0.70;;
20931;SDS011;10625;49.054;9.348;2022-09-09T16:55:41;1.93;;;0.50;;
20931;SDS011;10625;49.054;9.348;2022-09-09T16:58:10;3.50;;;0.60;;
20931;SDS011;10625;49.054;9.348;2022-09-09T17:00:37;1.20;;;0.50;;
20931;SDS011;10625;49.054;9.348;2022-09-09T17:03:05;2.30;;;0.90;;
20931;SDS011;10625;49.054;9.348;2022-09-09T17:05:32;3.60;;;0.77;;
20931;SDS011;10625;49.054;9.348;2022-09-09T17:07:59;0.70;;;0.53;;
20931;SDS011;10625;49.054;9.348;2022-09-09T17:10:27;1.33;;;0.33;;
20931;SDS011;10625;49.054;9.348;2022-09-09T17:12:54;1.77;;;0.57;;
20931;SDS011;10625;49.054;9.348;2022-09-09T17:15:22;3.90;;;0.50;;
20931;SDS011;10625;49.054;9.348;2022-09-09T17:17:50;3.60;;;0.80;;
20931;SDS011;10625;49.054;9.348;2022-09-09T17:20:19;2.03;;;0.80;;
20931;SDS011;10625;49.054;9.348;2022-09-09T17:22:47;1.47;;;0.70;;
20931;SDS011;10625;49.054;9.348;2022-09-09T17:25:15;1.53;;;0.67;;
20931;SDS011;10625;49.054;9.348;2022-09-09T17:27:43;2.30;;;0.60;;
20931;SDS011;10625;49.054;9.348;2022-09-09T17:30:11;0.97;;;0.50;;
20931;SDS011;10625;49.054;9.348;2022-09-09T17:32:38;2.57;;;0.70;;
20931;SDS011;10625;49.054;9.348;2022-09-09T17:35:06;1.33;;;0.50;;
20931;SDS011;10625;49.054;9.348;2022-09-09T17:37:33;2.10;;;0.70;;
20931;SDS011;10625;49.054;9.348;2022-09-09T17:40:01;2.40;;;0.70;;
20931;SDS011;10625;49.054;9.348;2022-09-09T17:42:29;2.00;;;0.80;;
20931;SDS011;10625;49.054;9.348;2022-09-09T17:44:57;1.13;;;0.53;;
20931;SDS011;10625;49.054;9.348;2022-09-09T17:47:24;2.33;;;0.77;;
20931;SDS011;10625;49.054;9.348;2022-09-09T17:49:52;1.20;;;0.63;;
20931;SDS011;10625;49.054;9.348;2022-09-09T17:52:19;1.37;;;0.60;;
20931;SDS011;10625;49.054;9.348;2022-09-09T17:54:47;2.67;;;0.60;;
20931;SDS011;10625;49.054;9.348;2022-09-09T17:57:15;2.87;;;0.90;;
20931;SDS011;10625;49.054;9.348;2022-09-09T17:59:44;2.43;;;0.70;;
20931;SDS011;10625;49.054;9.348;2022-09-09T18:02:11;3.30;;;0.60;;
20931;SDS011;10625;49.054;9.348;2022-09-09T18:04:39;4.43;;;0.80;;
20931;SDS011;10625;49.054;9.348;2022-09-09T18:07:08;1.37;;;0.83;;
20931;SDS011;10625;49.054;9.348;2022-09-09T18:09:35;3.77;;;0.70;;
20931;SDS011;10625;49.054;9.348;2022-09-09T18:12:04;2.60;;;0.77;;
20931;SDS011;10625;49.054;9.348;2022-09-09T18:14:31;1.67;;;0.70;;
20931;SDS011;10625;49.054;9.348;2022-09-09T18:16:59;1.80;;;0.90;;
20931;SDS011;10625;49.054;9.348;2022-09-09T18:19:27;1.67;;;0.93;;
20931;SDS011;10625;49.054;9.348;2022-09-09T18:21:55;3.20;;;1.30;;
20931;SDS011;10625;49.054;9.348;2022-09-09T18:24:23;2.03;;;1.00;;
20931;SDS011;10625;49.054;9.348;2022-09-09T18:26:53;2.83;;;1.00;;
20931;SDS011;10625;49.054;9.348;2022-09-09T18:29:21;2.37;;;1.00;;
20931;SDS011;10625;49.054;9.348;2022-09-09T18:31:51;2.00;;;1.00;;
20931;SDS011;10625;49.054;9.348;2022-09-09T18:34:20;2.10;;;1.20;;
20931;SDS011;10625;49.054;9.348;2022-09-09T18:36:49;3.33;;;1.20;;
20931;SDS011;10625;49.054;9.348;2022-09-09T18:39:22;3.00;;;1.23;;
20931;SDS011;10625;49.054;9.348;2022-09-09T18:41:51;3.13;;;1.37;;
20931;SDS011;10625;49.054;9.348;2022-09-09T18:44:20;4.20;;;0.87;;
20931;SDS011;10625;49.054;9.348;2022-09-09T18:46:47;2.40;;;1.00;;
20931;SDS011;10625;49.054;9.348;2022-09-09T18:49:15;1.80;;;1.00;;
20931;SDS011;10625;49.054;9.348;2022-09-09T18:51:43;3.87;;;0.90;;
20931;SDS011;10625;49.054;9.348;2022-09-09T18:54:11;1.93;;;0.90;;
20931;SDS011;10625;49.054;9.348;2022-09-09T18:56:39;1.33;;;0.67;;
20931;SDS011;10625;49.054;9.348;2022-09-09T18:59:07;4.27;;;1.20;;
20931;SDS011;10625;49.054;9.348;2022-09-09T19:01:35;1.00;;;0.90;;
20931;SDS011;10625;49.054;9.348;2022-09-09T19:04:03;1.27;;;1.10;;
20931;SDS011;10625;49.054;9.348;2022-09-09T19:06:32;1.57;;;0.90;;
20931;SDS011;10625;49.054;9.348;2022-09-09T19:08:59;3.53;;;1.40;;
20931;SDS011;10625;49.054;9.348;2022-09-09T19:11:27;1.40;;;0.77;;
20931;SDS011;10625;49.054;9.348;2022-09-09T19:13:55;1.53;;;0.70;;
20931;SDS011;10625;49.054;9.348;2022-09-09T19:16:24;2.07;;;1.30;;
20931;SDS011;10625;49.054;9.348;2022-09-09T19:18:52;3.17;;;1.40;;
20931;SDS011;10625;49.054;9.348;2022-09-09T19:21:21;3.83;;;1.83;;
20931;SDS011;10625;49.054;9.348;2022-09-09T19:23:53;1.00;;;0.67;;
20931;SDS011;10625;49.054;9.348;2022-09-09T19:26:17;1.93;;;1.00;;
20931;SDS011;10625;49.054;9.348;2022-09-09T19:28:45;2.03;;;1.00;;
20931;SDS011;10625;49.054;9.348;2022-09-09T19:31:15;3.30;;;1.00;;
20931;SDS011;10625;49.054;9.348;2022-09-09T19:33:43;3.13;;;0.93;;
20931;SDS011;10625;49.054;9.348;2022-09-09T19:36:15;2.13;;;0.90;;
20931;SDS011;10625;49.054;9.348;2022-09-09T19:38:43;1.40;;;0.70;;
20931;SDS011;10625;49.054;9.348;2022-09-09T19:41:12;2.00;;;0.93;;
20931;SDS011;10625;49.054;9.348;2022-09-09T19:43:40;1.37;;;1.13;;
20931;SDS011;10625;49.054;9.348;2022-09-09T19:46:08;2.03;;;1.40;;
20931;SDS011;10625;49.054;9.348;2022-09-09T19:48:37;5.23;;;1.50;;
20931;SDS011;10625;49.054;9.348;2022-09-09T19:51:12;3.83;;;1.60;;
20931;SDS011;10625;49.054;9.348;2022-09-09T19:53:45;3.03;;;1.93;;
20931;SDS011;10625;49.054;9.348;2022-09-09T19:56:09;3.97;;;1.63;;
20931;SDS011;10625;49.054;9.348;2022-09-09T19:58:37;1.60;;;1.50;;
20931;SDS011;10625;49.054;9.348;2022-09-09T20:01:10;2.30;;;0.83;;
20931;SDS011;10625;49.054;9.348;2022-09-09T20:03:38;2.50;;;0.80;;
20931;SDS011;10625;49.054;9.348;2022-09-09T20:06:06;3.97;;;1.40;;
20931;SDS011;10625;49.054;9.348;2022-09-09T20:08:34;2.97;;;1.40;;
20931;SDS011;10625;49.054;9.348;2022-09-09T20:11:02;6.00;;;1.13;;
20931;SDS011;10625;49.054;9.348;2022-09-09T20:13:30;2.37;;;1.60;;
20931;SDS011;10625;49.054;9.348;2022-09-09T20:15:58;1.10;;;0.90;;
20931;SDS011;10625;49.054;9.348;2022-09-09T20:18:27;2.60;;;1.90;;
20931;SDS011;10625;49.054;9.348;2022-09-09T20:20:56;2.23;;;1.73;;
20931;SDS011;10625;49.054;9.348;2022-09-09T20:23:26;4.53;;;2.10;;
20931;SDS011;10625;49.054;9.348;2022-09-09T20:25:53;3.90;;;2.00;;
20931;SDS011;10625;49.054;9.348;2022-09-09T20:28:21;5.67;;;2.13;;
20931;SDS011;10625;49.054;9.348;2022-09-09T20:30:48;3.80;;;1.97;;
20931;SDS011;10625;49.054;9.348;2022-09-09T20:33:18;4.17;;;2.00;;
20931;SDS011;10625;49.054;9.348;2022-09-09T20:35:47;3.03;;;1.80;;
20931;SDS011;10625;49.054;9.348;2022-09-09T20:38:14;4.10;;;2.10;;
20931;SDS011;10625;49.054;9.348;2022-09-09T20:40:42;3.60;;;2.17;;
20931;SDS011;10625;49.054;9.348;2022-09-09T20:43:09;4.10;;;1.70;;
20931;SDS011;10625;49.054;9.348;2022-09-09T20:45:40;2.87;;;2.10;;
20931;SDS011;10625;49.054;9.348;2022-09-09T20:48:09;6.77;;;2.43;;
20931;SDS011;10625;49.054;9.348;2022-09-09T20:50:36;3.57;;;2.53;;
20931;SDS011;10625;49.054;9.348;2022-09-09T20:53:04;4.03;;;1.70;;
20931;SDS011;10625;49.054;9.348;2022-09-09T20:55:31;4.53;;;2.23;;
20931;SDS011;10625;49.054;9.348;2022-09-09T20:57:59;2.10;;;1.53;;
20931;SDS011;10625;49.054;9.348;2022-09-09T21:00:27;2.60;;;1.30;;
20931;SDS011;10625;49.054;9.348;2022-09-09T21:02:55;1.80;;;1.10;;
20931;SDS011;10625;49.054;9.348;2022-09-09T21:05:22;3.57;;;1.70;;
20931;SDS011;10625;49.054;9.348;2022-09-09T21:07:51;4.47;;;2.60;;
20931;SDS011;10625;49.054;9.348;2022-09-09T21:10:18;4.23;;;2.03;;
20931;SDS011;10625;49.054;9.348;2022-09-09T21:12:45;3.77;;;1.67;;
20931;SDS011;10625;49.054;9.348;2022-09-09T21:15:13;1.80;;;1.70;;
